Station: Lake Cargelligo  

  Atmospheric Gas Attenuation - ITU Rec 676-11   ----------------- dB/100km -----------------
Date Time Temp RH % AH g/m3 Dew Point Wind Direction Speed kph Gust kph Barometer mB Rainfall Since 9am 24GHz 47GHz 76GHz 122GHz 134GHz 241GHz
08/05 09:00 10 79 7.43 6.6 13 1013.1 0 17.3 25.1 36.9 96.7 87.4 299.6
07/05 09:00 9.3 69 6.2 3.9 22 1013.1 0 14.6 23.3 32.3 84.5 72.1 245.7
06/05 09:00 11.5 91 9.4 10.1 4 1013.1 0.1 21.4 27.9 44.3 116.5 112.4 387.3
05/05 09:00 13 85 9.64 10.5 4 1013.1 0.1 21.9 27.9 44.5 117.0 113.6 391.4
16/04 09:00 16.5 62 8.71 9.2 4 1013.1 0 19.7 25.3 38.9 102.1 96.4 332.0
15/04 09:00 15.5 69 9.12 9.8 4 1013.1 0 20.6 26.2 41.0 107.7 103.0 354.9
14/04 09:00 15.7 71 9.5 10.4 13 1013.1 0 21.4 26.8 42.4 111.5 107.8 371.6
10/04 09:00 20 83 14.34 17.1 9 1013.1 4 31.5 33.6 60.2 159.0 167.7 581.3
09/04 09:00 25.5 37 8.76 9.8 9 1013.1 0 19.4 23.0 35.0 91.8 86.7 298.9
08/04 09:00 21 49 8.98 10 0 1013.1 0 20.0 24.5 37.8 99.1 94.4 325.2
02/04 09:00 23 74 15.21 18.2 9 1013.1 0 33.1 34.0 61.7 163.0 173.5 602.1
01/04 09:00 20.5 75 13.34 16 9 1013.1 0 29.3 31.6 55.5 146.3 152.3 527.6
31/03 09:00 19 80 13.04 15.6 9 1013.1 0 28.8 31.7 55.2 145.7 151.0 523.0
27/03 09:00 10 93 8.74 9 37 1013.1 8 20.1 27.3 42.3 111.2 105.3 362.2
26/03 09:00 23 78 16.03 19.1 0 1013.1 0.1 34.8 35.4 65.3 172.7 185.4 643.6
25/03 09:00 24.5 71 15.89 18.9 9 1013.1 0 34.4 34.6 63.5 167.7 179.8 624.1
24/03 09:00 22.5 82 16.38 19.4 9 1013.1 0 35.6 36.3 67.4 178.0 191.9 665.9
20/03 09:00 22 89 17.27 20.1 4 1013.1 1 37.6 38.2 72.0 190.2 206.7 717.5
19/03 09:00 20.5 99 17.61 20.3 4 1013.1 2 38.4 39.5 75.1 198.4 216.3 750.7
17/03 09:00 23 80 16.44 19.4 9 1013.1 0.1 35.7 36.2 67.2 177.6 191.5 664.7
16/03 09:00 26.4 61 15.19 18.3 4 1013.1 0 32.8 32.6 59.0 155.8 165.7 575.2
11/03 09:00 24 60 13.05 15.8 13 1013.1 0 28.4 29.9 51.9 136.8 141.6 490.9
06/03 09:00 24.5 43 9.62 11.3 19 1013.1 0 21.2 24.5 38.5 101.0 97.8 337.7
05/03 09:00 23 83 17.06 19.9 4 1013.1 0 37.0 37.3 70.0 185.2 200.8 697.0
03/03 09:00 24 93 20.23 22.8 13 1013.1 11 43.7 42.9 84.2 222.9 247.4 859.1
02/03 09:00 26.1 54 13.22 16.2 19 1013.1 0.1 28.7 29.5 51.2 135.0 140.0 485.7
27/02 09:00 25.5 58 13.73 16.8 22 1013.1 0 29.8 30.5 53.6 141.5 147.9 512.8
26/02 09:00 25.5 65 15.39 18.5 28 1013.1 0 33.3 33.3 60.5 159.8 170.4 591.6
25/02 09:00 26.8 64 16.29 19.6 9 1013.1 0 35.1 34.3 63.3 167.3 180.0 625.2
24/02 09:00 27.5 59 15.61 19 22 1013.1 0 33.6 32.9 59.9 158.2 169.0 587.0
23/02 09:00 25.7 44 10.53 12.5 4 1013.1 0.1 23.1 25.5 41.2 108.3 107.1 370.4
20/02 09:00 22.5 55 10.98 13 13 1013.1 0 24.2 27.1 44.6 117.3 117.2 405.4
19/02 09:00 21.5 46 8.67 9.5 9 1013.1 0 19.4 23.9 36.4 95.5 90.0 310.2
17/02 09:00 24 56 12.18 14.8 22 1013.1 0 26.6 28.5 48.4 127.5 130.2 451.1
13/02 09:00 19.5 63 10.57 12.4 9 1013.1 0.1 23.5 27.4 44.6 117.4 116.4 402.2
12/02 09:00 22.6 72 14.46 17.3 22 1013.1 0.1 31.5 32.8 58.7 155.1 163.7 567.9
10/02 09:00 24.5 83 18.58 21.5 9 1013.1 0.4 40.1 39.5 75.7 200.2 219.8 763.2
06/02 09:00 28 17 4.62 1.2 9 1013.1 0 10.7 17.2 21.2 54.8 41.8 141.5
04/02 09:00 25.5 44 10.42 12.6 13 1013.1 0 22.8 25.4 40.9 107.5 106.0 366.7
03/02 09:00 20 44 7.6 7.4 22 1013.1 0 17.2 22.7 33.2 86.9 79.0 271.3
02/02 09:00 16 91 12.4 14.6 28 1013.1 7 27.6 31.6 54.6 143.8 147.7 511.1
30/01 09:00 31.6 40 13.22 16.4 22 1013.1 0 28.3 27.7 47.8 126.0 130.6 453.2
29/01 09:00 31 35 11.2 13.9 19 1013.1 0 24.1 25.0 40.9 107.6 107.8 373.5
28/01 09:00 30.5 38 11.84 14.9 13 1013.1 0 25.5 26.0 43.4 114.3 115.9 401.8
22/01 09:00 19 61 9.94 11.4 22 1013.1 0 22.2 26.5 42.4 111.5 108.9 376.1
21/01 09:00 25 47 10.82 13 13 1013.1 0 23.7 26.1 42.6 112.1 111.6 386.0
20/01 09:00 23 53 10.89 13 28 1013.1 0.1 24.0 26.8 43.9 115.6 115.3 398.8
16/01 09:00 24.5 46 10.29 12.4 19 1013.1 0 22.6 25.5 40.9 107.5 105.8 365.8
15/01 09:00 27.2 31 8.07 8.6 4 1013.1 0 17.9 21.6 32.0 83.7 77.3 266.2
14/01 09:00 1013.1
13/01 09:00 26.5 55 13.77 16.9 19 1013.1 0 29.8 30.2 53.1 140.1 146.5 508.2
10/01 09:00 33.5 24 8.78 10.3 19 1013.1 0 19.1 21.1 31.8 83.5 78.8 272.1
08/01 09:00 32.5 29 10.06 12.4 19 1013.1 0 21.7 23.0 36.3 95.5 93.3 322.8
06/01 09:00 26 54 13.15 16.1 4 1013.1 28.5 29.4 51.0 134.4 139.3 483.1
23/12 09:00 20 49 8.47 9.1 19 1013.1 0 19.0 24.0 36.4 95.3 89.3 307.5
19/12 09:00 33.8 29 10.77 13.7 13 1013.1 0 23.1 23.7 38.1 100.2 99.4 344.5
17/12 09:00 27 52 13.38 16.4 22 1013.1 0 28.9 29.4 51.2 135.1 140.5 487.3
16/12 09:00 18 47 7.22 6.6 9 1013.1 0 16.5 22.6 32.7 85.4 76.5 262.1
11/12 09:00 25.5 26 6.16 4.9 19 1013.1 0 14.0 19.5 26.4 68.9 58.5 200.0
08/12 09:00 20.6 73 13.06 15.6 4 1013.1 0 28.7 31.1 54.2 143.0 148.2 513.3
05/12 09:00 29.9 62 18.7 22 13 1013.1 0 39.8 37.2 71.1 188.0 206.3 717.1
02/12 09:00 14 83 10.01 11.2 22 1013.1 4 22.6 28.2 45.5 119.6 117.2 404.2
27/11 09:00 18.9 71 11.5 13.5 4 1013.1 0 25.5 29.1 48.8 128.4 129.8 448.8
26/11 09:00 20.5 81 14.41 17.1 4 1013.1 1 31.6 33.5 60.1 158.8 167.6 581.0
25/11 09:00 27.5 62 16.4 19.7 19 1013.1 0.2 35.2 34.2 63.2 167.1 179.9 624.9
21/11 09:00 19 61 9.94 11.4 19 1013.1 0 22.2 26.5 42.4 111.5 108.9 376.1
20/11 09:00 23 52 10.69 12.6 19 1013.1 0 23.5 26.5 43.2 113.6 112.8 390.1
19/11 09:00 25 50 11.51 13.9 9 1013.1 0 25.1 27.2 45.2 119.0 120.1 415.8
18/11 09:00 19.5 62 10.4 12.2 13 1013.1 0 23.1 27.1 44.0 115.6 114.2 394.5
14/11 09:00 21.4 39 7.31 7.1 9 1013.1 0 16.5 22.0 31.6 82.8 74.3 255.0
12/11 09:00 13.5 50 5.85 3.3 4 1013.1 0 13.7 21.7 29.4 76.8 64.1 218.4
11/11 09:00 18 40 6.14 4.2 22 1013.1 0 14.2 21.1 28.9 75.3 63.9 218.1
06/11 09:00 18.5 49 7.75 7.8 9 1013.1 0 17.6 23.3 34.4 90.0 82.3 282.6
05/11 09:00 14 57 6.88 5.6 19 1013.1 0 15.9 23.1 33.0 86.4 76.2 260.7
04/11 09:00 10.8 90 8.9 9.2 19 1013.1 11 20.4 27.3 42.6 111.9 106.4 366.2
31/10 09:00 20.6 42 7.52 7.5 13 1013.1 0 17.0 22.4 32.7 85.6 77.5 266.0
30/10 09:00 18 64 9.83 11.2 4 1013.1 0 22.0 26.6 42.5 111.8 108.9 375.8
29/10 09:00 14 73 8.81 9.3 13 1013.1 2 20.0 26.2 40.5 106.4 100.9 347.3
28/10 09:00 14.6 56 7.01 6.1 28 1013.1 0 16.2 23.2 33.3 87.0 77.2 264.4
24/10 09:00 16.4 45 6.28 4.4 13 1013.1 0 14.6 21.7 29.9 78.1 66.8 228.2
23/10 09:00 14.5 56 6.97 5.8 22 1013.1 0 16.1 23.2 33.2 86.7 76.8 263.0
22/10 09:00 23 46 9.45 10.8 9 1013.1 0 20.9 24.6 38.6 101.3 97.6 336.9
21/10 09:00 23.5 48 10.15 12.1 9 1013.1 0 22.4 25.5 40.9 107.5 105.4 364.4
17/10 09:00 23.5 35 7.4 7.3 19 1013.1 0 16.6 21.6 31.2 81.5 73.4 252.1
16/10 09:00 20.5 42 7.47 7.1 4 1013.1 0 16.9 22.4 32.6 85.2 77.0 264.3
14/10 09:00 15.5 52 6.87 5.8 4 1013.1 0 15.8 22.7 32.4 84.7 74.6 255.5
13/10 09:00 13.5 76 8.89 9.4 9 1013.1 8 20.2 26.4 41.1 108.0 102.6 353.3
10/10 09:00 17 75 10.85 12.5 4 1013.1 0 24.2 28.6 47.2 124.3 124.0 428.6
08/10 09:00 15.2 71 9.22 10.1 4 1013.1 0.1 20.8 26.5 41.6 109.2 104.8 360.9
03/10 09:00 14.8 54 6.84 5.6 28 1013.1 0 15.8 22.9 32.6 85.1 74.9 256.4
02/10 09:00 15.3 48 6.27 4.5 28 1013.1 0 14.6 21.9 30.3 79.1 67.6 230.9
30/09 09:00 21.5 32 6.03 4.1 28 1013.1 0 13.8 20.2 27.3 71.2 60.0 204.9
29/09 09:00 17 51 7.38 7 4 1013.1 0 16.9 23.1 33.6 88.1 79.4 272.2
25/09 09:00 16.7 49 6.96 6.1 4 1013.1 0 16.0 22.6 32.2 84.3 74.6 255.5
24/09 09:00 14 63 7.6 7.1 9 1013.1 0 17.4 24.2 35.8 93.7 85.2 292.3
22/09 09:00 13 69 7.83 7.5 19 1013.1 0 18.0 24.9 37.1 97.3 89.3 306.4
20/09 09:00 12 65 6.93 5.6 22 1013.1 1 16.1 23.7 34.1 89.1 78.8 269.6
19/09 09:00 18 42 6.45 5 19 1013.1 0 14.9 21.5 29.9 78.2 67.5 230.6
18/09 09:00 14 51 6.15 4 9 1013.1 0 14.4 22.1 30.3 79.2 67.3 229.6
16/09 09:00 22.5 40 7.99 8.4 19 1013.1 0 17.9 22.6 33.6 87.9 81.0 278.7

Last Refresh: 08-May-2026 12:10:20

Bureau of Meteorology